createdAt,value
2023-05-18T00:00:14.448Z,99835.31
2023-05-18T00:02:42.953Z,99826.88
2023-05-18T00:05:11.636Z,99835.44
2023-05-18T00:07:41.071Z,99835.44
2023-05-18T00:10:10.756Z,99838.72
2023-05-18T00:12:38.850Z,99831.19
2023-05-18T00:15:09.976Z,99829.50
2023-05-18T00:17:38.067Z,99832.00
2023-05-18T00:20:10.318Z,99836.22
2023-05-18T00:22:39.158Z,99837.91
2023-05-18T00:25:07.722Z,99830.38
2023-05-18T00:27:35.703Z,99833.78
2023-05-18T00:30:05.736Z,99833.81
2023-05-18T00:32:35.056Z,99836.34
2023-05-18T00:35:02.996Z,99838.06
2023-05-18T00:37:30.891Z,99837.31
2023-05-18T00:39:58.810Z,99844.00
2023-05-18T00:42:27.033Z,99831.47
2023-05-18T00:44:55.007Z,99831.47
2023-05-18T00:47:23.437Z,99842.31
2023-05-18T00:49:52.733Z,99842.31
2023-05-18T00:52:21.442Z,99849.88
2023-05-18T00:54:50.358Z,99840.69
2023-05-18T00:57:19.129Z,99852.38
2023-05-18T00:59:48.115Z,99846.50
2023-05-18T01:02:16.926Z,99850.69
2023-05-18T01:04:44.871Z,99846.47
2023-05-18T01:07:16.623Z,99850.78
2023-05-18T01:09:44.758Z,99852.47
2023-05-18T01:12:22.465Z,99864.97
2023-05-18T01:14:55.353Z,99853.22
2023-05-18T01:17:33.706Z,99859.94
2023-05-18T01:20:13.104Z,99854.94
2023-05-18T01:23:10.215Z,99859.94
2023-05-18T01:25:49.530Z,99858.19
2023-05-18T01:28:22.587Z,99855.66
2023-05-18T01:30:51.919Z,99855.59
2023-05-18T01:33:19.982Z,99849.63
2023-05-18T01:35:49.041Z,99852.22
2023-05-18T01:38:18.878Z,99853.06
2023-05-18T01:40:54.231Z,99850.53
2023-05-18T01:43:31.134Z,99852.19
2023-05-18T01:46:06.100Z,99854.69
2023-05-18T01:48:39.036Z,99852.94
2023-05-18T01:51:10.901Z,99853.72
2023-05-18T01:53:42.999Z,99852.09
2023-05-18T01:56:13.730Z,99849.59
2023-05-18T01:58:44.361Z,99854.59
2023-05-18T02:01:12.876Z,99851.25
2023-05-18T02:03:40.932Z,99852.03
2023-05-18T02:06:09.082Z,99852.88
2023-05-18T02:08:38.185Z,99864.59
2023-05-18T02:11:06.180Z,99857.88
2023-05-18T02:13:36.826Z,99850.25
2023-05-18T02:16:06.735Z,99857.03
2023-05-18T02:18:36.450Z,99855.41
2023-05-18T02:21:05.118Z,99841.81
2023-05-18T02:23:33.932Z,99862.91
2023-05-18T02:26:02.666Z,99852.06
2023-05-18T02:28:30.770Z,99856.28
2023-05-18T02:31:08.136Z,99864.63
2023-05-18T02:33:40.217Z,99866.28
2023-05-18T02:36:12.469Z,99867.09
2023-05-18T02:38:42.197Z,99862.94
2023-05-18T02:41:10.608Z,99856.22
2023-05-18T02:43:39.344Z,99862.94
2023-05-18T02:46:10.178Z,99855.38
2023-05-18T02:48:38.188Z,99864.59
2023-05-18T02:51:06.357Z,99870.50
2023-05-18T02:53:34.962Z,99865.44
2023-05-18T02:56:09.678Z,99866.28
2023-05-18T02:59:04.046Z,99869.69
2023-05-18T03:01:41.072Z,99867.16
2023-05-18T03:04:09.559Z,99869.69
2023-05-18T03:06:42.798Z,99870.50
2023-05-18T03:09:11.683Z,99876.31
2023-05-18T03:11:43.261Z,99878.03
2023-05-18T03:14:11.564Z,99887.19
2023-05-18T03:16:40.914Z,99877.16
2023-05-18T03:19:15.943Z,99873.00
2023-05-18T03:21:44.076Z,99878.06
2023-05-18T03:24:14.970Z,99883.97
2023-05-18T03:26:45.622Z,99886.47
2023-05-18T03:29:13.848Z,99885.66
2023-05-18T03:31:44.033Z,99888.16
2023-05-18T03:34:13.766Z,99889.88
2023-05-18T03:36:47.371Z,99896.66
2023-05-18T03:39:15.929Z,99897.56
2023-05-18T03:41:43.865Z,99891.72
2023-05-18T03:44:11.913Z,99895.03
2023-05-18T03:46:39.861Z,99897.59
2023-05-18T03:49:09.400Z,99900.13
2023-05-18T03:51:42.070Z,99894.22
2023-05-18T03:54:09.968Z,99901.09
2023-05-18T03:56:38.046Z,99903.53
2023-05-18T03:59:06.587Z,99910.25
2023-05-18T04:01:35.316Z,99896.75
2023-05-18T04:04:03.450Z,99909.44
2023-05-18T04:06:35.346Z,99915.34
2023-05-18T04:09:04.788Z,99920.31
2023-05-18T04:11:32.934Z,99926.22
2023-05-18T04:14:01.408Z,99918.66
2023-05-18T04:16:29.524Z,99917.84
2023-05-18T04:18:57.584Z,99921.22
2023-05-18T04:21:25.625Z,99930.41
2023-05-18T04:23:54.883Z,99931.31
2023-05-18T04:26:22.816Z,99927.19
2023-05-18T04:28:52.549Z,99933.13
2023-05-18T04:31:20.493Z,99931.50
2023-05-18T04:33:51.364Z,99924.88
2023-05-18T04:36:21.304Z,99935.69
2023-05-18T04:38:50.777Z,99939.84
2023-05-18T04:41:22.225Z,99942.41
2023-05-18T04:43:50.595Z,99940.03
2023-05-18T04:46:18.888Z,99943.56
2023-05-18T04:48:49.883Z,99948.00
2023-05-18T04:51:18.122Z,99954.88
2023-05-18T04:53:46.130Z,99960.00
2023-05-18T04:56:15.029Z,99956.75
2023-05-18T04:58:46.116Z,99958.47
2023-05-18T05:01:15.367Z,99952.63
2023-05-18T05:03:43.846Z,99952.72
2023-05-18T05:06:15.932Z,99953.69
2023-05-18T05:08:44.009Z,99957.19
2023-05-18T05:11:12.646Z,99965.63
2023-05-18T05:13:40.548Z,99962.41
2023-05-18T05:16:09.951Z,99964.19
2023-05-18T05:18:37.954Z,99967.66
2023-05-18T05:21:06.484Z,99967.81
2023-05-18T05:23:35.586Z,99972.00
2023-05-18T05:26:03.804Z,99981.31
2023-05-18T05:28:32.949Z,99972.13
2023-05-18T05:31:00.877Z,99969.56
2023-05-18T05:33:30.200Z,99972.97
2023-05-18T05:35:58.131Z,99975.50
2023-05-18T05:38:26.312Z,99976.47
2023-05-18T05:40:54.270Z,99966.47
2023-05-18T05:43:22.243Z,99976.59
2023-05-18T05:45:51.479Z,99974.22
2023-05-18T05:48:19.878Z,99974.09
2023-05-18T05:50:49.745Z,99979.94
2023-05-18T05:53:19.758Z,99981.69
2023-05-18T05:55:48.769Z,99980.78
2023-05-18T05:58:19.157Z,99986.59
2023-05-18T06:00:52.300Z,99986.47
2023-05-18T06:03:21.425Z,99961.81
2023-05-18T06:05:51.691Z,99981.38
2023-05-18T06:08:24.158Z,99988.09
2023-05-18T06:10:52.774Z,99998.22
2023-05-18T06:13:21.017Z,99989.16
2023-05-18T06:15:51.844Z,99995.13
2023-05-18T06:18:19.857Z,99991.88
2023-05-18T06:20:51.135Z,99994.53
2023-05-18T06:23:22.788Z,99997.75
2023-05-18T06:26:02.966Z,100000.03
2023-05-18T06:28:47.870Z,100002.41
2023-05-18T06:31:34.947Z,99998.22
2023-05-18T06:34:15.502Z,99997.41
2023-05-18T06:36:44.928Z,100005.06
2023-05-18T06:39:13.001Z,100007.63
2023-05-18T06:41:41.114Z,100008.41
2023-05-18T06:44:09.189Z,100001.84
2023-05-18T06:46:37.780Z,100007.94
2023-05-18T06:49:16.201Z,100010.69
2023-05-18T06:51:46.404Z,100008.44
2023-05-18T06:54:15.143Z,100011.03
2023-05-18T06:56:43.315Z,100005.34
2023-05-18T06:59:11.322Z,100006.34
2023-05-18T07:01:40.059Z,100004.00
2023-05-18T07:04:08.671Z,100007.22
2023-05-18T07:06:36.685Z,100007.34
2023-05-18T07:09:08.058Z,100008.34
2023-05-18T07:11:36.073Z,99988.03
2023-05-18T07:14:04.078Z,100003.19
2023-05-18T07:16:32.155Z,100010.53
2023-05-18T07:19:00.171Z,100010.53
2023-05-18T07:21:28.145Z,100004.53
2023-05-18T07:23:56.170Z,100002.78
2023-05-18T07:26:26.157Z,100009.56
2023-05-18T07:28:54.134Z,100017.09
2023-05-18T07:31:22.595Z,100013.69
2023-05-18T07:33:50.645Z,100012.91
2023-05-18T07:36:18.653Z,100016.19
2023-05-18T07:38:46.629Z,100017.97
2023-05-18T07:41:14.528Z,100016.38
2023-05-18T07:43:43.779Z,100018.09
2023-05-18T07:46:11.741Z,100014.06
2023-05-18T07:48:41.023Z,100018.28
2023-05-18T07:51:09.230Z,100011.75
2023-05-18T07:53:37.920Z,100017.72
2023-05-18T07:56:07.077Z,100021.16
2023-05-18T07:58:35.293Z,100016.22
2023-05-18T08:01:04.950Z,100013.00
2023-05-18T08:03:33.071Z,100014.72
2023-05-18T08:06:01.301Z,100020.75
2023-05-18T08:08:29.742Z,100018.28
2023-05-18T08:10:58.316Z,100027.56
2023-05-18T08:13:26.627Z,100031.03
2023-05-18T08:16:09.838Z,100034.53
2023-05-18T08:18:41.305Z,100041.28
2023-05-18T08:21:10.232Z,100039.75
2023-05-18T08:23:38.940Z,100031.47
2023-05-18T08:26:08.245Z,100029.91
2023-05-18T08:28:36.444Z,100046.75
2023-05-18T08:31:04.418Z,100043.47
2023-05-18T08:33:33.331Z,100046.94
2023-05-18T08:36:02.666Z,100044.56
2023-05-18T08:38:31.956Z,100043.91
2023-05-18T08:41:07.126Z,100043.13
2023-05-18T08:43:39.039Z,100050.75
2023-05-18T08:46:12.395Z,100053.28
2023-05-18T08:48:42.667Z,100051.56
2023-05-18T08:51:14.272Z,100052.34
2023-05-18T08:53:43.280Z,100048.09
2023-05-18T08:56:12.726Z,100048.97
2023-05-18T08:58:45.938Z,100045.63
2023-05-18T09:01:14.932Z,100048.09
2023-05-18T09:03:43.277Z,100048.75
2023-05-18T09:06:12.752Z,100042.78
2023-05-18T09:08:41.920Z,100051.09
2023-05-18T09:11:10.021Z,100059.50
2023-05-18T09:13:39.204Z,100050.16
2023-05-18T09:16:08.803Z,100050.97
2023-05-18T09:18:36.870Z,100058.53
2023-05-18T09:21:04.983Z,100056.00
2023-05-18T09:23:34.582Z,100052.59
2023-05-18T09:26:04.843Z,100057.69
2023-05-18T09:28:36.567Z,100054.38
2023-05-18T09:31:04.963Z,100054.44
2023-05-18T09:33:35.290Z,100040.97
2023-05-18T09:36:05.071Z,100052.03
2023-05-18T09:38:38.222Z,100052.94
2023-05-18T09:41:10.795Z,100056.25
2023-05-18T09:43:38.777Z,100062.97
2023-05-18T09:46:10.593Z,100064.66
2023-05-18T09:48:43.057Z,100066.34
2023-05-18T09:51:11.916Z,100068.81
2023-05-18T09:53:41.661Z,100065.41
2023-05-18T09:56:12.182Z,100066.25
2023-05-18T09:58:40.792Z,100056.06
2023-05-18T10:01:08.738Z,100071.25
2023-05-18T10:03:38.763Z,100074.66
2023-05-18T10:06:08.250Z,100072.19
2023-05-18T10:08:37.177Z,100074.69
2023-05-18T10:11:07.420Z,100077.09
2023-05-18T10:13:35.912Z,100074.63
2023-05-18T10:16:05.602Z,100068.00
2023-05-18T10:18:35.975Z,100073.16
2023-05-18T10:21:05.945Z,100067.44
2023-05-18T10:23:35.927Z,100068.34
2023-05-18T10:26:09.900Z,100072.50
2023-05-18T10:28:42.308Z,100078.38
2023-05-18T10:31:10.734Z,100063.09
2023-05-18T10:33:39.339Z,100075.03
2023-05-18T10:36:08.472Z,100075.88
2023-05-18T10:38:39.914Z,100081.81
2023-05-18T10:41:12.642Z,100080.28
2023-05-18T10:43:42.526Z,100086.19
2023-05-18T10:46:10.803Z,100086.19
2023-05-18T10:48:40.520Z,100079.34
2023-05-18T10:51:09.276Z,100084.31
2023-05-18T10:53:37.853Z,100085.97
2023-05-18T10:56:07.896Z,100086.88
2023-05-18T10:58:39.586Z,100080.97
2023-05-18T11:01:12.508Z,100082.63
2023-05-18T11:03:40.930Z,100081.78
2023-05-18T11:06:10.873Z,100080.97
2023-05-18T11:08:48.191Z,100072.50
2023-05-18T11:11:18.896Z,100070.75
2023-05-18T11:13:51.841Z,100090.97
2023-05-18T11:16:20.701Z,100089.13
2023-05-18T11:18:51.563Z,100093.28
2023-05-18T11:21:31.278Z,100093.25
2023-05-18T11:24:36.553Z,100078.16
2023-05-18T11:27:13.123Z,100090.00
2023-05-18T11:29:44.993Z,100092.59
2023-05-18T11:32:29.727Z,100094.34
2023-05-18T11:34:59.205Z,100097.69
2023-05-18T11:37:49.686Z,100099.41
2023-05-18T11:40:48.115Z,100098.59
2023-05-18T11:43:21.789Z,100099.41
2023-05-18T11:45:57.304Z,100097.78
2023-05-18T11:48:29.830Z,100102.94
2023-05-18T11:50:58.468Z,100097.94
2023-05-18T11:53:27.696Z,100097.97
2023-05-18T11:55:56.631Z,100109.75
2023-05-18T11:58:26.231Z,100098.03
2023-05-18T12:00:56.438Z,100103.16
2023-05-18T12:03:25.896Z,100098.09
2023-05-18T12:05:54.815Z,100106.50
2023-05-18T12:08:29.508Z,100107.38
2023-05-18T12:10:58.123Z,100104.13
2023-05-18T12:13:27.346Z,100097.47
2023-05-18T12:15:59.027Z,100108.50
2023-05-18T12:18:29.497Z,100103.44
2023-05-18T12:20:57.376Z,100105.06
2023-05-18T12:23:36.951Z,100115.16
2023-05-18T12:26:05.064Z,100105.06
2023-05-18T12:28:32.962Z,100105.84
2023-05-18T12:31:07.228Z,100108.50
2023-05-18T12:33:35.336Z,100112.81
2023-05-18T12:36:03.150Z,100104.50
2023-05-18T12:38:32.792Z,100113.94
2023-05-18T12:41:00.685Z,100104.69
2023-05-18T12:43:28.609Z,100097.13
2023-05-18T12:45:56.534Z,100099.72
2023-05-18T12:48:26.648Z,100101.50
2023-05-18T12:50:55.574Z,100098.94
2023-05-18T12:53:24.094Z,100092.09
2023-05-18T12:55:59.605Z,100097.19
2023-05-18T12:58:27.513Z,100102.31
2023-05-18T13:00:55.350Z,100097.31
2023-05-18T13:03:24.341Z,100104.16
2023-05-18T13:06:05.540Z,100102.53
2023-05-18T13:08:34.838Z,100100.84
2023-05-18T13:11:12.583Z,100108.41
2023-05-18T13:13:58.969Z,100102.38
2023-05-18T13:16:27.097Z,100096.50
2023-05-18T13:18:59.551Z,100097.31
2023-05-18T13:21:29.057Z,100102.34
2023-05-18T13:23:56.987Z,100090.56
2023-05-18T13:26:26.114Z,100104.88
2023-05-18T13:28:56.478Z,100102.06
2023-05-18T13:31:25.135Z,100101.88
2023-05-18T13:33:53.216Z,100105.97
2023-05-18T13:36:21.212Z,100104.09
2023-05-18T13:38:52.201Z,100114.13
2023-05-18T13:41:20.186Z,100110.72
2023-05-18T13:43:48.029Z,100110.69
2023-05-18T13:46:15.923Z,100118.16
2023-05-18T13:48:43.851Z,100112.25
2023-05-18T13:51:11.778Z,100107.91
2023-05-18T13:53:40.889Z,100078.25
2023-05-18T13:56:10.420Z,100112.16
2023-05-18T13:58:38.451Z,100106.31
2023-05-18T14:01:08.734Z,100113.81
2023-05-18T14:03:37.725Z,100107.84
2023-05-18T14:06:05.903Z,100104.44
2023-05-18T14:08:33.842Z,100112.03
2023-05-18T14:11:01.687Z,100111.16
2023-05-18T14:13:31.017Z,100105.13
2023-05-18T14:15:58.907Z,100114.34
2023-05-18T14:18:26.772Z,100105.00
2023-05-18T14:20:54.822Z,100109.19
2023-05-18T14:23:24.371Z,100112.47
2023-05-18T14:25:52.257Z,100105.78
2023-05-18T14:28:20.070Z,100106.69
2023-05-18T14:30:49.283Z,100107.59
2023-05-18T14:33:17.121Z,100102.50
2023-05-18T14:35:45.109Z,100103.34
2023-05-18T14:38:12.992Z,100104.97
2023-05-18T14:40:41.052Z,100104.94
2023-05-18T14:43:08.923Z,100099.03
2023-05-18T14:45:36.786Z,100101.63
2023-05-18T14:48:06.221Z,100104.19
2023-05-18T14:50:37.436Z,100101.59
2023-05-18T14:53:06.350Z,100100.66
2023-05-18T14:55:34.229Z,100098.94
2023-05-18T14:58:04.553Z,100092.16
2023-05-18T15:00:33.449Z,100092.16
2023-05-18T15:03:01.921Z,100098.97
2023-05-18T15:05:31.298Z,100093.84
2023-05-18T15:07:59.198Z,100097.88
2023-05-18T15:10:27.072Z,100095.38
2023-05-18T15:12:54.930Z,100096.22
2023-05-18T15:15:25.253Z,100099.56
2023-05-18T15:17:54.482Z,100101.25
2023-05-18T15:20:23.593Z,100098.72
2023-05-18T15:22:52.883Z,100099.56
2023-05-18T15:25:20.980Z,100096.97
2023-05-18T15:27:49.252Z,100099.47
2023-05-18T15:30:17.119Z,100108.66
2023-05-18T15:32:45.420Z,100103.59
2023-05-18T15:35:16.082Z,100096.81
2023-05-18T15:37:43.922Z,100097.72
2023-05-18T15:40:13.432Z,100096.94
2023-05-18T15:42:41.286Z,100098.56
2023-05-18T15:45:09.832Z,100096.81
2023-05-18T15:47:37.816Z,100101.06
2023-05-18T15:50:06.666Z,100092.59
2023-05-18T15:52:34.572Z,100090.84
2023-05-18T15:55:02.437Z,100096.75
2023-05-18T15:57:31.638Z,100087.44
2023-05-18T15:59:59.462Z,100099.25
2023-05-18T16:02:27.381Z,100101.78
2023-05-18T16:04:55.258Z,100100.09
2023-05-18T16:07:23.074Z,100108.47
2023-05-18T16:09:51.004Z,100098.38
2023-05-18T16:12:18.832Z,100084.88
2023-05-18T16:14:48.210Z,100104.25
2023-05-18T16:17:16.080Z,100105.91
2023-05-18T16:19:43.939Z,100112.69
2023-05-18T16:22:11.819Z,100112.63
2023-05-18T16:24:40.300Z,100106.63
2023-05-18T16:27:08.681Z,100109.03
2023-05-18T16:29:36.728Z,100113.06
2023-05-18T16:32:08.149Z,100102.97
2023-05-18T16:34:36.066Z,100106.34
2023-05-18T16:37:03.907Z,100108.03
2023-05-18T16:39:31.782Z,100106.28
2023-05-18T16:41:59.609Z,100104.63
2023-05-18T16:44:27.447Z,100116.41
2023-05-18T16:46:55.346Z,100107.97
2023-05-18T16:49:24.593Z,100112.97
2023-05-18T16:51:52.901Z,100107.91
2023-05-18T16:54:20.862Z,100117.09
2023-05-18T16:56:48.720Z,100108.66
2023-05-18T16:59:16.608Z,100117.84
2023-05-18T17:01:44.570Z,100117.84
2023-05-18T17:04:12.580Z,100116.16
2023-05-18T17:06:42.104Z,100109.38
2023-05-18T17:09:09.966Z,100120.28
2023-05-18T17:11:37.887Z,100112.72
2023-05-18T17:14:05.750Z,100125.31
2023-05-18T17:16:40.146Z,100120.25
2023-05-18T17:19:08.182Z,100130.25
2023-05-18T17:21:36.243Z,100129.31
2023-05-18T17:24:06.116Z,100128.50
2023-05-18T17:26:33.998Z,100129.41
2023-05-18T17:29:01.961Z,100134.31
2023-05-18T17:31:30.494Z,100130.09
2023-05-18T17:33:58.677Z,100129.44
2023-05-18T17:36:26.922Z,100132.91
2023-05-18T17:38:56.139Z,100127.00
2023-05-18T17:41:25.990Z,100137.91
2023-05-18T17:43:53.916Z,100133.66
2023-05-18T17:46:21.875Z,100131.00
2023-05-18T17:48:49.760Z,100132.75
2023-05-18T17:51:17.659Z,100135.16
2023-05-18T17:53:45.733Z,100136.03
2023-05-18T17:56:13.781Z,100142.81
2023-05-18T17:58:42.964Z,100144.41
2023-05-18T18:01:12.166Z,100136.78
2023-05-18T18:03:40.346Z,100144.22
2023-05-18T18:06:08.658Z,100144.22
2023-05-18T18:08:36.901Z,100145.88
2023-05-18T18:11:06.322Z,100145.09
2023-05-18T18:13:35.678Z,100149.31
2023-05-18T18:16:05.371Z,100151.84
2023-05-18T18:18:36.031Z,100151.78
2023-05-18T18:21:04.222Z,100152.63
2023-05-18T18:23:32.550Z,100131.41
2023-05-18T18:26:00.848Z,100148.38
2023-05-18T18:28:29.327Z,100152.63
2023-05-18T18:30:58.111Z,100133.00
2023-05-18T18:33:28.033Z,100161.72
2023-05-18T18:35:57.710Z,100160.72
2023-05-18T18:38:27.079Z,100163.16
2023-05-18T18:40:57.753Z,100159.06
2023-05-18T18:43:27.675Z,100164.88
2023-05-18T18:45:57.290Z,100169.00
2023-05-18T18:48:27.045Z,100166.41
2023-05-18T18:50:54.959Z,100163.94
2023-05-18T18:53:23.033Z,100172.34
2023-05-18T18:55:51.341Z,100158.00
2023-05-18T18:58:19.558Z,100167.25
2023-05-18T19:00:47.469Z,100167.28
2023-05-18T19:03:16.097Z,100173.91
2023-05-18T19:05:45.508Z,100172.94
2023-05-18T19:08:13.724Z,100172.91
2023-05-18T19:10:41.662Z,100173.72
2023-05-18T19:13:09.613Z,100175.44
2023-05-18T19:15:38.307Z,100180.50
2023-05-18T19:18:07.689Z,100181.34
2023-05-18T19:20:35.887Z,100190.72
2023-05-18T19:23:05.683Z,100188.28
2023-05-18T19:25:33.866Z,100180.66
2023-05-18T19:28:02.070Z,100181.59
2023-05-18T19:30:30.029Z,100184.81
2023-05-18T19:32:57.989Z,100188.19
2023-05-18T19:35:25.965Z,100183.25
2023-05-18T19:37:53.890Z,100190.97
2023-05-18T19:40:23.185Z,100197.00
2023-05-18T19:42:53.516Z,100188.53
2023-05-18T19:45:21.543Z,100195.34
2023-05-18T19:47:49.502Z,100195.31
2023-05-18T19:50:17.614Z,100196.22
2023-05-18T19:52:45.875Z,100199.56
2023-05-18T19:55:13.815Z,100211.16
2023-05-18T19:57:43.215Z,100215.19
2023-05-18T20:00:11.964Z,100213.44
2023-05-18T20:02:42.696Z,100215.81
2023-05-18T20:05:12.633Z,100217.34
2023-05-18T20:07:41.065Z,100218.06
2023-05-18T20:10:09.001Z,100225.47
2023-05-18T20:12:36.925Z,100223.78
2023-05-18T20:15:08.713Z,100218.66
2023-05-18T20:17:37.712Z,100222.72
2023-05-18T20:20:06.166Z,100226.94
2023-05-18T20:22:34.041Z,100230.28
2023-05-18T20:25:05.388Z,100231.97
2023-05-18T20:27:33.345Z,100226.03
2023-05-18T20:30:01.289Z,100233.59
2023-05-18T20:32:32.690Z,100231.13
2023-05-18T20:35:00.758Z,100235.31
2023-05-18T20:37:28.707Z,100228.56
2023-05-18T20:39:57.398Z,100235.25
2023-05-18T20:42:31.874Z,100232.72
2023-05-18T20:44:59.877Z,100234.41
2023-05-18T20:47:29.609Z,100236.81
2023-05-18T20:49:59.305Z,100240.13
2023-05-18T20:52:27.283Z,100234.25
2023-05-18T20:54:55.294Z,100237.63
2023-05-18T20:57:31.507Z,100226.59
2023-05-18T20:59:59.429Z,100233.22
2023-05-18T21:02:27.429Z,100234.78
2023-05-18T21:04:57.647Z,100231.44
2023-05-18T21:07:27.016Z,100239.88
2023-05-18T21:09:54.937Z,100238.28
2023-05-18T21:12:22.862Z,100238.34
2023-05-18T21:14:50.928Z,100229.06
2023-05-18T21:17:18.936Z,100240.13
2023-05-18T21:19:46.832Z,100243.44
2023-05-18T21:22:14.721Z,100230.69
2023-05-18T21:24:43.987Z,100239.91
2023-05-18T21:27:12.034Z,100241.53
2023-05-18T21:29:39.972Z,100245.69
2023-05-18T21:32:08.526Z,100245.66
2023-05-18T21:34:36.594Z,100251.53
2023-05-18T21:37:04.589Z,100251.53
2023-05-18T21:39:32.523Z,100253.25
2023-05-18T21:42:02.619Z,100252.25
2023-05-18T21:44:30.685Z,100254.63
2023-05-18T21:46:58.751Z,100268.66
2023-05-18T21:49:26.674Z,100260.88
2023-05-18T21:51:56.084Z,100267.53
2023-05-18T21:54:24.032Z,100273.38
2023-05-18T21:56:51.982Z,100271.75
2023-05-18T21:59:21.448Z,100272.41
2023-05-18T22:01:49.352Z,100277.31
2023-05-18T22:04:18.324Z,100285.66
2023-05-18T22:06:46.351Z,100278.09
2023-05-18T22:09:14.332Z,100282.19
2023-05-18T22:11:42.223Z,100269.53
2023-05-18T22:14:10.157Z,100277.97
2023-05-18T22:16:39.552Z,100279.50
2023-05-18T22:19:07.618Z,100278.69
2023-05-18T22:21:35.551Z,100282.09
2023-05-18T22:24:03.542Z,100287.13
2023-05-18T22:26:31.618Z,100289.66
2023-05-18T22:28:59.641Z,100291.41
2023-05-18T22:31:28.006Z,100289.72
2023-05-18T22:33:57.344Z,100286.34
2023-05-18T22:36:25.275Z,100290.28
2023-05-18T22:38:53.242Z,100293.59
2023-05-18T22:41:21.954Z,100291.72
2023-05-18T22:43:49.851Z,100291.59
2023-05-18T22:46:17.909Z,100281.66
2023-05-18T22:48:45.901Z,100288.50
2023-05-18T22:51:15.819Z,100286.72
2023-05-18T22:53:44.885Z,100285.56
2023-05-18T22:56:12.834Z,100280.25
2023-05-18T22:58:40.728Z,100275.69
2023-05-18T23:01:08.611Z,100277.25
2023-05-18T23:03:36.498Z,100278.19
2023-05-18T23:06:04.473Z,100280.75
2023-05-18T23:08:36.998Z,100277.50
2023-05-18T23:11:05.920Z,100275.03
2023-05-18T23:13:37.395Z,100279.47
2023-05-18T23:16:06.153Z,100279.38
2023-05-18T23:18:34.153Z,100277.78
2023-05-18T23:21:03.146Z,100277.78
2023-05-18T23:23:31.055Z,100275.34
2023-05-18T23:26:00.845Z,100278.72
2023-05-18T23:28:29.776Z,100277.88
2023-05-18T23:30:57.743Z,100281.19
2023-05-18T23:33:26.541Z,100275.97
2023-05-18T23:35:56.622Z,100281.00
2023-05-18T23:38:34.850Z,100279.16
2023-05-18T23:41:05.460Z,100275.69
2023-05-18T23:43:33.933Z,100278.97
2023-05-18T23:46:02.397Z,100278.97
2023-05-18T23:48:31.001Z,100270.44
2023-05-18T23:51:02.406Z,100262.91
2023-05-18T23:53:31.360Z,100271.28
2023-05-18T23:56:00.321Z,100272.25
2023-05-18T23:58:33.053Z,100270.53
